createdAt,value
2022-11-12T00:16:16.961Z,13.50
2022-11-12T00:18:43.475Z,12.70
2022-11-12T00:21:10.018Z,13.95
2022-11-12T00:23:36.606Z,13.10
2022-11-12T00:26:03.199Z,12.57
2022-11-12T00:28:34.730Z,13.27
2022-11-12T00:31:09.340Z,12.30
2022-11-12T00:33:40.586Z,12.63
2022-11-12T00:36:08.275Z,12.77
2022-11-12T00:38:34.902Z,13.23
2022-11-12T00:41:01.721Z,14.38
2022-11-12T00:43:28.630Z,13.35
2022-11-12T00:46:29.238Z,12.77
2022-11-12T00:49:05.771Z,12.27
2022-11-12T01:07:30.596Z,12.85
2022-11-12T01:09:57.125Z,12.35
2022-11-12T01:12:23.725Z,13.48
2022-11-12T01:14:50.432Z,13.52
2022-11-12T01:17:16.964Z,13.23
2022-11-12T01:26:18.071Z,12.07
2022-11-12T01:28:44.748Z,11.77
2022-11-12T01:31:19.832Z,12.48
2022-11-12T01:33:49.138Z,13.80
2022-11-12T01:36:17.813Z,12.68
2022-11-12T01:38:45.491Z,13.48
2022-11-12T01:59:57.714Z,12.50
2022-11-12T02:02:24.758Z,12.68
2022-11-12T02:04:51.748Z,13.20
2022-11-12T02:07:22.373Z,12.50
2022-11-12T02:09:49.031Z,12.25
2022-11-12T02:12:35.912Z,12.02
2022-11-12T02:23:02.020Z,12.75
2022-11-12T02:25:28.773Z,12.37
2022-11-12T02:27:56.817Z,12.73
2022-11-12T02:30:48.897Z,11.40
2022-11-12T02:33:49.338Z,11.38
2022-11-12T02:53:23.737Z,13.75
2022-11-12T02:55:50.635Z,13.82
2022-11-12T02:58:17.246Z,14.70
2022-11-12T03:00:43.794Z,14.02
2022-11-12T03:03:10.398Z,14.23
2022-11-12T03:09:01.200Z,15.63
2022-11-12T03:11:27.810Z,16.20
2022-11-12T03:13:54.355Z,15.30
2022-11-12T03:16:20.923Z,14.50
2022-11-12T03:18:47.512Z,14.55
2022-11-12T03:21:14.153Z,16.35
2022-11-12T03:23:58.893Z,17.77
2022-11-12T03:55:45.639Z,15.10
2022-11-12T03:58:14.385Z,14.68
2022-11-12T04:00:41.027Z,15.43
2022-11-12T04:03:09.748Z,14.50
2022-11-12T04:05:54.738Z,15.18
2022-11-12T04:16:43.966Z,14.90
2022-11-12T04:19:31.367Z,14.60
2022-11-12T04:22:09.522Z,15.32
2022-11-12T04:24:59.889Z,15.73
2022-11-12T04:27:31.845Z,14.02
2022-11-12T04:30:18.703Z,14.68
2022-11-12T04:32:50.366Z,14.95
2022-11-12T04:35:18.879Z,16.05
2022-11-12T04:43:40.897Z,16.27
2022-11-12T04:46:07.623Z,15.45
2022-11-12T04:53:57.606Z,16.40
2022-11-12T04:56:24.177Z,15.98
2022-11-12T04:59:53.225Z,17.10
2022-11-12T05:02:44.649Z,16.52
2022-11-12T05:05:11.215Z,17.08
2022-11-12T05:07:37.758Z,17.23
2022-11-12T05:10:04.583Z,18.42
2022-11-12T05:12:31.135Z,18.58
2022-11-12T05:14:58.031Z,19.75
2022-11-12T05:17:24.576Z,18.80
2022-11-12T05:19:51.932Z,19.58
2022-11-12T05:22:42.001Z,19.92
2022-11-12T05:25:06.500Z,19.90
2022-11-12T05:27:33.930Z,18.98
2022-11-12T05:30:00.540Z,20.75
2022-11-12T05:41:07.785Z,19.48
2022-11-12T05:43:34.346Z,19.60
2022-11-12T05:46:00.923Z,18.05
2022-11-12T05:49:14.604Z,18.50
2022-11-12T05:52:01.311Z,18.15
2022-11-12T05:54:27.943Z,18.92
2022-11-12T05:56:55.036Z,19.27
2022-11-12T05:59:22.237Z,18.92
2022-11-12T06:01:48.830Z,18.25
2022-11-12T06:04:16.079Z,18.73
2022-11-12T06:09:17.871Z,18.67
2022-11-12T06:11:44.411Z,18.95
2022-11-12T06:14:10.990Z,18.90
2022-11-12T06:16:37.619Z,18.42
2022-11-12T06:19:04.953Z,18.83
2022-11-12T06:21:31.487Z,19.87
2022-11-12T06:24:35.682Z,19.67
2022-11-12T06:27:27.309Z,20.17
2022-11-12T06:29:53.877Z,20.37
2022-11-12T06:32:20.446Z,21.65
2022-11-12T06:34:46.979Z,19.60
2022-11-12T06:37:13.659Z,20.70
2022-11-12T06:39:40.244Z,20.45
2022-11-12T06:55:15.736Z,19.25
2022-11-12T06:58:33.919Z,19.75
2022-11-12T07:01:21.462Z,19.50
2022-11-12T07:03:51.937Z,18.67
2022-11-12T07:06:20.540Z,19.58
2022-11-12T07:08:49.189Z,20.37
2022-11-12T07:11:16.982Z,20.52
2022-11-12T07:13:47.220Z,20.08
2022-11-12T07:16:18.415Z,18.70
2022-11-12T07:18:46.687Z,19.75
2022-11-12T07:21:16.297Z,20.25
2022-11-12T07:23:42.864Z,19.67
2022-11-12T07:26:24.443Z,20.05
2022-11-12T07:28:52.475Z,19.45
2022-11-12T07:31:20.377Z,19.10
2022-11-12T07:33:50.600Z,20.08
2022-11-12T07:36:19.399Z,18.42
2022-11-12T07:38:46.853Z,20.17
2022-11-12T07:41:14.762Z,18.62
2022-11-12T07:43:43.877Z,20.02
2022-11-12T07:46:16.102Z,20.65
2022-11-12T07:48:44.541Z,19.45
2022-11-12T07:51:14.051Z,19.62
2022-11-12T07:53:41.963Z,19.02
2022-11-12T07:56:11.423Z,19.02
2022-11-12T07:58:38.120Z,19.42
2022-11-12T08:01:19.891Z,19.12
2022-11-12T08:03:46.457Z,19.55
2022-11-12T08:06:13.224Z,20.02
2022-11-12T08:08:39.829Z,18.92
2022-11-12T08:11:06.455Z,19.37
2022-11-12T08:13:33.014Z,19.80
2022-11-12T08:16:00.377Z,20.45
2022-11-12T08:18:27.683Z,21.25
2022-11-12T08:21:02.547Z,19.60
2022-11-12T08:23:29.667Z,18.15
2022-11-12T08:26:03.355Z,19.90
2022-11-12T08:28:31.510Z,19.33
2022-11-12T08:31:03.187Z,18.60
2022-11-12T08:33:30.744Z,19.95
2022-11-12T08:35:57.603Z,19.52
2022-11-12T08:38:24.432Z,18.48
2022-11-12T08:40:51.209Z,18.92
2022-11-12T08:43:17.792Z,18.80
2022-11-12T08:45:44.679Z,19.20
2022-11-12T08:48:14.397Z,19.42
2022-11-12T08:50:42.243Z,18.80
2022-11-12T08:53:11.846Z,19.15
2022-11-12T08:55:39.222Z,18.80
2022-11-12T08:58:06.647Z,18.25
2022-11-12T09:00:37.249Z,19.40
2022-11-12T09:03:06.128Z,18.95
2022-11-12T09:05:35.227Z,20.58
2022-11-12T09:08:08.553Z,20.70
2022-11-12T09:10:36.543Z,20.33
2022-11-12T09:13:03.963Z,20.60
2022-11-12T09:15:37.448Z,21.30
2022-11-12T09:18:08.217Z,20.67
2022-11-12T09:20:34.782Z,20.00
2022-11-12T09:23:04.356Z,20.65
2022-11-12T09:25:31.233Z,19.98
2022-11-12T09:28:08.388Z,19.12
2022-11-12T09:30:36.077Z,20.00
2022-11-12T09:33:02.837Z,19.10
2022-11-12T09:35:29.938Z,19.52
2022-11-12T09:37:58.527Z,18.50
2022-11-12T09:40:45.393Z,18.62
2022-11-12T09:43:20.923Z,18.50
2022-11-12T09:46:00.296Z,17.85
2022-11-12T09:48:40.645Z,21.77
2022-11-12T09:51:11.515Z,19.02
2022-11-12T09:53:56.271Z,20.73
2022-11-12T09:56:24.496Z,20.30
2022-11-12T09:58:52.016Z,19.42
2022-11-12T10:01:22.356Z,19.65
2022-11-12T10:04:03.160Z,20.58
2022-11-12T10:06:45.447Z,19.58
2022-11-12T10:09:23.042Z,19.90
2022-11-12T10:12:19.703Z,20.17
2022-11-12T10:15:23.114Z,20.42
2022-11-12T10:18:21.039Z,19.48
2022-11-12T10:20:56.174Z,20.12
2022-11-12T10:23:33.907Z,19.77
2022-11-12T10:26:09.526Z,19.33
2022-11-12T10:29:02.870Z,19.05
2022-11-12T10:31:29.447Z,19.30
2022-11-12T10:34:13.826Z,18.02
2022-11-12T10:36:45.662Z,16.70
2022-11-12T10:39:38.247Z,17.10
2022-11-12T10:42:13.555Z,19.25
2022-11-12T10:44:42.466Z,19.27
2022-11-12T10:47:38.942Z,17.80
2022-11-12T10:50:16.019Z,18.70
2022-11-12T10:53:11.192Z,17.55
2022-11-12T10:55:55.047Z,19.30
2022-11-12T10:58:21.620Z,18.12
2022-11-12T11:01:05.182Z,17.92
2022-11-12T11:03:37.348Z,18.45
2022-11-12T11:06:21.644Z,19.20
2022-11-12T11:08:53.133Z,18.60
2022-11-12T11:11:32.029Z,19.02
2022-11-12T11:14:26.427Z,18.62
2022-11-12T11:19:42.840Z,20.25
2022-11-12T11:22:15.275Z,19.08
2022-11-12T11:24:50.684Z,18.98
2022-11-12T11:27:47.398Z,18.45
2022-11-12T11:30:19.014Z,19.08
2022-11-12T11:41:17.023Z,19.60
2022-11-12T11:43:49.908Z,19.17
2022-11-12T11:49:01.744Z,18.58
2022-11-12T11:51:43.629Z,19.17
2022-11-12T11:54:36.025Z,18.77
2022-11-12T11:57:13.098Z,18.85
2022-11-12T11:59:54.552Z,18.95
2022-11-12T12:02:21.013Z,17.60
2022-11-12T12:04:51.304Z,18.60
2022-11-12T12:07:26.591Z,19.70
2022-11-12T12:10:09.206Z,18.90
2022-11-12T12:13:08.620Z,17.58
2022-11-12T12:15:58.172Z,19.08
2022-11-12T12:18:39.923Z,17.92
2022-11-12T12:21:18.806Z,17.40
2022-11-12T12:23:54.835Z,18.48
2022-11-12T12:26:30.775Z,18.37
2022-11-12T12:29:21.801Z,17.52
2022-11-12T12:31:53.434Z,16.37
2022-11-12T12:34:33.760Z,15.65
2022-11-12T12:37:07.583Z,16.40
2022-11-12T12:39:47.738Z,16.67
2022-11-12T12:42:29.861Z,16.77
2022-11-12T12:45:03.268Z,16.55
2022-11-12T12:47:36.857Z,16.85
2022-11-12T12:50:07.596Z,16.62
2022-11-12T12:53:03.762Z,16.95
2022-11-12T12:55:41.870Z,15.70
2022-11-12T12:58:31.483Z,15.70
2022-11-12T13:01:19.127Z,14.50
2022-11-12T13:03:53.828Z,14.73
2022-11-12T13:06:23.266Z,13.57
2022-11-12T13:09:18.116Z,13.18
2022-11-12T13:12:03.205Z,12.63
2022-11-12T13:14:35.485Z,12.40
2022-11-12T13:17:05.115Z,11.45
2022-11-12T13:19:37.948Z,10.88
2022-11-12T13:25:02.686Z,8.90
2022-11-12T13:27:44.409Z,8.32
2022-11-12T13:30:30.855Z,8.45
2022-11-12T13:32:59.051Z,9.10
2022-11-12T13:35:25.665Z,8.30
2022-11-12T13:38:12.990Z,8.75
2022-11-12T13:40:44.561Z,9.38
2022-11-12T13:43:27.794Z,9.82
2022-11-12T13:45:59.926Z,10.45
2022-11-12T13:48:59.723Z,11.93
2022-11-12T13:51:41.087Z,10.45
2022-11-12T13:54:34.688Z,11.30
2022-11-12T13:57:24.023Z,10.07
2022-11-12T14:00:22.115Z,10.88
2022-11-12T14:03:05.293Z,12.07
2022-11-12T14:08:25.738Z,11.70
2022-11-12T14:11:22.070Z,10.90
2022-11-12T14:14:06.479Z,11.75
2022-11-12T14:16:44.650Z,13.00
2022-11-12T14:19:45.266Z,13.05
2022-11-12T14:22:22.203Z,13.93
2022-11-12T14:25:00.420Z,14.75
2022-11-12T14:27:30.428Z,14.27
2022-11-12T14:30:35.304Z,14.63
2022-11-12T14:33:10.102Z,14.52
2022-11-12T14:35:37.795Z,15.93
2022-11-12T14:38:30.339Z,15.05
2022-11-12T14:41:01.945Z,14.98
2022-11-12T14:43:54.980Z,16.65
2022-11-12T14:46:29.130Z,15.85
2022-11-12T14:49:07.419Z,15.63
2022-11-12T14:51:47.220Z,15.88
2022-11-12T14:54:27.765Z,16.23
2022-11-12T14:56:54.886Z,16.52
2022-11-12T14:59:21.907Z,16.02
2022-11-12T15:02:31.397Z,15.05
2022-11-12T15:05:01.200Z,16.40
2022-11-12T15:07:33.994Z,17.12
2022-11-12T15:10:01.698Z,18.48
2022-11-12T15:12:31.572Z,17.77
2022-11-12T15:15:18.837Z,16.15
2022-11-12T15:17:45.471Z,18.58
2022-11-12T15:20:21.217Z,19.92
2022-11-12T15:22:53.164Z,19.62
2022-11-12T15:25:26.480Z,21.47
2022-11-12T15:27:56.420Z,23.50
2022-11-12T15:30:28.747Z,25.27
2022-11-12T15:33:13.721Z,24.17
2022-11-12T15:35:47.264Z,23.05
2022-11-12T15:38:23.227Z,23.40
2022-11-12T15:40:57.575Z,21.95
2022-11-12T15:43:28.512Z,21.50
2022-11-12T15:45:56.429Z,21.65
2022-11-12T15:48:23.211Z,21.02
2022-11-12T15:50:49.904Z,22.23
2022-11-12T15:53:16.663Z,19.37
2022-11-12T15:55:44.058Z,19.85
2022-11-12T15:58:17.440Z,20.02
2022-11-12T16:00:44.326Z,20.00
2022-11-12T16:03:14.878Z,20.20
2022-11-12T16:05:42.099Z,19.48
2022-11-12T16:08:08.779Z,19.27
2022-11-12T16:10:36.636Z,22.27
2022-11-12T16:13:05.273Z,20.20
2022-11-12T16:15:32.226Z,19.80
2022-11-12T16:18:01.806Z,21.45
2022-11-12T16:20:32.070Z,20.60
2022-11-12T16:22:58.703Z,22.15
2022-11-12T16:25:30.324Z,22.70
2022-11-12T16:27:58.075Z,40.05
2022-11-12T16:30:33.958Z,24.70
2022-11-12T16:33:01.798Z,23.55
2022-11-12T16:35:31.422Z,23.27
2022-11-12T16:37:57.943Z,23.35
2022-11-12T16:40:27.357Z,21.75
2022-11-12T16:42:54.000Z,23.23
2022-11-12T16:45:22.857Z,22.83
2022-11-12T16:47:54.659Z,23.12
2022-11-12T16:50:24.658Z,22.92
2022-11-12T16:52:51.439Z,22.52
2022-11-12T16:55:18.089Z,22.85
2022-11-12T16:57:45.200Z,21.87
2022-11-12T17:00:17.681Z,21.45
2022-11-12T17:02:49.382Z,21.87
2022-11-12T17:05:21.281Z,22.00
2022-11-12T17:07:48.914Z,21.00
2022-11-12T17:10:16.914Z,22.48
2022-11-12T17:12:43.570Z,21.58
2022-11-12T17:15:10.368Z,20.62
2022-11-12T17:17:55.340Z,21.58
2022-11-12T17:20:22.080Z,20.20
2022-11-12T17:22:48.673Z,21.15
2022-11-12T17:25:15.358Z,25.08
2022-11-12T17:27:42.271Z,26.02
2022-11-12T17:30:10.071Z,28.00
2022-11-12T17:32:36.648Z,27.05
2022-11-12T17:35:03.245Z,25.62
2022-11-12T17:37:29.767Z,26.25
2022-11-12T17:39:56.358Z,26.20
2022-11-12T17:42:22.964Z,25.98
2022-11-12T17:44:49.523Z,25.60
2022-11-12T17:47:16.035Z,26.15
2022-11-12T17:49:42.694Z,27.80
2022-11-12T17:52:09.239Z,25.95
2022-11-12T17:54:36.592Z,26.30
2022-11-12T17:57:03.164Z,27.20
2022-11-12T17:59:29.779Z,27.08
2022-11-12T18:01:56.363Z,27.25
2022-11-12T18:04:23.923Z,28.17
2022-11-12T18:06:50.789Z,29.17
2022-11-12T18:09:17.514Z,29.83
2022-11-12T18:11:50.023Z,32.45
2022-11-12T18:14:16.924Z,31.98
2022-11-12T18:16:43.564Z,31.62
2022-11-12T18:19:11.165Z,30.77
2022-11-12T18:21:40.014Z,29.90
2022-11-12T18:24:07.831Z,30.00
2022-11-12T18:26:34.998Z,28.00
2022-11-12T18:29:01.605Z,28.10
2022-11-12T18:31:28.716Z,28.42
2022-11-12T18:33:56.009Z,27.98
2022-11-12T18:36:25.528Z,29.48
2022-11-12T18:38:55.485Z,29.50
2022-11-12T18:41:26.017Z,28.40
2022-11-12T18:43:53.983Z,32.63
2022-11-12T18:46:20.571Z,32.08
2022-11-12T18:48:47.572Z,34.83
2022-11-12T18:51:16.510Z,37.70
2022-11-12T18:53:43.623Z,38.88
2022-11-12T18:56:16.080Z,40.40
2022-11-12T18:58:43.146Z,42.13
2022-11-12T19:01:24.022Z,43.03
2022-11-12T19:03:55.927Z,43.35
2022-11-12T19:06:23.623Z,42.17
2022-11-12T19:08:50.819Z,41.92
2022-11-12T19:11:19.100Z,41.20
2022-11-12T19:13:45.701Z,41.92
2022-11-12T19:16:16.925Z,42.13
2022-11-12T19:18:44.231Z,41.05
2022-11-12T19:21:15.962Z,40.25
2022-11-12T19:23:43.092Z,41.75
2022-11-12T19:26:13.551Z,39.00
2022-11-12T19:28:40.718Z,38.10
2022-11-12T19:31:12.744Z,38.83
2022-11-12T19:33:39.497Z,38.13
2022-11-12T19:36:08.763Z,38.55
2022-11-12T19:38:35.335Z,39.60
2022-11-12T19:41:13.394Z,37.58
2022-11-12T19:43:42.969Z,35.35
2022-11-12T19:46:11.304Z,36.83
2022-11-12T19:48:38.744Z,37.33
2022-11-12T19:51:07.321Z,34.05
2022-11-12T19:53:40.948Z,35.85
2022-11-12T19:56:08.091Z,39.35
2022-11-12T19:58:35.106Z,40.33
2022-11-12T20:01:06.613Z,42.70
2022-11-12T20:03:33.871Z,43.40
2022-11-12T20:06:05.616Z,39.33
2022-11-12T20:08:33.080Z,37.65
2022-11-12T20:11:00.179Z,37.15
2022-11-12T20:13:27.467Z,37.55
2022-11-12T20:15:54.288Z,35.70
2022-11-12T20:18:21.208Z,34.90
2022-11-12T20:20:51.352Z,35.67
2022-11-12T20:23:18.023Z,34.63
2022-11-12T20:25:44.655Z,34.28
2022-11-12T20:28:11.963Z,34.53
2022-11-12T20:30:39.225Z,35.42
2022-11-12T20:33:05.784Z,34.00
2022-11-12T20:35:36.377Z,34.17
2022-11-12T20:38:04.551Z,35.78
2022-11-12T20:40:32.230Z,37.03
2022-11-12T20:42:59.033Z,34.05
2022-11-12T20:45:27.137Z,35.95
2022-11-12T20:47:56.377Z,33.70
2022-11-12T20:50:23.642Z,33.72
2022-11-12T20:52:50.301Z,34.95
2022-11-12T20:55:17.074Z,34.38
2022-11-12T20:57:44.017Z,33.35
2022-11-12T21:00:14.086Z,32.40
2022-11-12T21:02:41.684Z,32.08
2022-11-12T21:05:08.595Z,34.25
2022-11-12T21:08:25.559Z,33.38
2022-11-12T21:11:15.628Z,33.08
2022-11-12T21:13:42.694Z,32.53
2022-11-12T21:16:10.897Z,33.10
2022-11-12T21:18:38.297Z,33.50
2022-11-12T21:21:11.403Z,33.72
2022-11-12T21:23:40.974Z,34.13
2022-11-12T21:28:48.354Z,36.25
2022-11-12T21:31:23.484Z,36.13
2022-11-12T21:34:03.171Z,36.47
2022-11-12T21:36:31.824Z,36.15
2022-11-12T21:39:02.548Z,36.15
2022-11-12T21:42:25.964Z,38.40
2022-11-12T21:45:35.223Z,36.10
2022-11-12T21:48:01.757Z,37.85
2022-11-12T21:50:28.531Z,36.58
2022-11-12T21:52:56.371Z,36.58
2022-11-12T21:55:22.959Z,35.90
2022-11-12T21:57:49.494Z,37.13
2022-11-12T22:00:40.817Z,38.17
2022-11-12T22:03:03.321Z,37.95
2022-11-12T22:05:29.911Z,38.53
2022-11-12T22:07:56.500Z,37.25
2022-11-12T22:10:23.046Z,36.85
2022-11-12T22:13:19.753Z,36.85
2022-11-12T22:18:11.353Z,34.83
2022-11-12T22:20:37.872Z,34.78
2022-11-12T22:23:07.181Z,35.85
2022-11-12T22:25:33.709Z,35.78
2022-11-12T22:28:00.273Z,34.00
2022-11-12T22:30:45.625Z,36.03
2022-11-12T22:37:17.504Z,35.03
2022-11-12T22:39:44.036Z,34.60
2022-11-12T22:42:10.629Z,34.92
2022-11-12T22:44:37.166Z,35.42
2022-11-12T22:47:03.744Z,35.90
2022-11-12T22:49:30.267Z,34.60
2022-11-12T22:51:56.882Z,36.50
2022-11-12T23:00:01.003Z,38.83
2022-11-12T23:02:27.928Z,35.35
2022-11-12T23:04:54.496Z,36.15
2022-11-12T23:07:51.948Z,35.30
2022-11-12T23:10:44.456Z,37.33
2022-11-12T23:13:12.225Z,35.80
2022-11-12T23:15:42.722Z,36.42
2022-11-12T23:18:09.389Z,38.05
2022-11-12T23:20:35.920Z,37.15
2022-11-12T23:23:03.251Z,36.63
2022-11-12T23:25:45.342Z,38.50
2022-11-12T23:31:14.447Z,37.85
2022-11-12T23:33:45.654Z,37.28
2022-11-12T23:36:12.690Z,35.20
2022-11-12T23:41:17.028Z,35.03
2022-11-12T23:43:44.506Z,36.72
2022-11-12T23:46:29.534Z,35.85
2022-11-12T23:49:26.937Z,36.55
2022-11-12T23:52:08.878Z,44.45
2022-11-12T23:54:35.530Z,53.35
2022-11-12T23:57:02.095Z,76.57
2022-11-12T23:59:28.630Z,72.57
